sensor_id;sensor_type;location;lat;lon;timestamp;P1;durP1;ratioP1;P2;durP2;ratioP2
29330;SDS011;16331;52.528;13.342;2023-07-31T00:01:11;4.13;;;1.70;;
29330;SDS011;16331;52.528;13.342;2023-07-31T00:03:37;5.45;;;1.63;;
29330;SDS011;16331;52.528;13.342;2023-07-31T00:06:06;5.47;;;1.42;;
29330;SDS011;16331;52.528;13.342;2023-07-31T00:08:32;8.45;;;2.05;;
29330;SDS011;16331;52.528;13.342;2023-07-31T00:10:59;8.18;;;2.00;;
29330;SDS011;16331;52.528;13.342;2023-07-31T00:13:25;4.10;;;2.05;;
29330;SDS011;16331;52.528;13.342;2023-07-31T00:16:05;5.70;;;2.33;;
29330;SDS011;16331;52.528;13.342;2023-07-31T00:18:31;5.43;;;1.63;;
29330;SDS011;16331;52.528;13.342;2023-07-31T00:21:05;6.30;;;2.10;;
29330;SDS011;16331;52.528;13.342;2023-07-31T00:23:40;6.38;;;2.22;;
29330;SDS011;16331;52.528;13.342;2023-07-31T00:26:17;10.45;;;3.15;;
29330;SDS011;16331;52.528;13.342;2023-07-31T00:28:46;6.03;;;2.05;;
29330;SDS011;16331;52.528;13.342;2023-07-31T00:31:12;6.80;;;2.67;;
29330;SDS011;16331;52.528;13.342;2023-07-31T00:33:38;7.82;;;1.80;;
29330;SDS011;16331;52.528;13.342;2023-07-31T00:36:04;7.88;;;2.42;;
29330;SDS011;16331;52.528;13.342;2023-07-31T00:38:31;7.78;;;2.20;;
29330;SDS011;16331;52.528;13.342;2023-07-31T00:40:57;13.10;;;4.45;;
29330;SDS011;16331;52.528;13.342;2023-07-31T00:43:23;8.02;;;2.60;;
29330;SDS011;16331;52.528;13.342;2023-07-31T00:45:49;7.78;;;2.20;;
29330;SDS011;16331;52.528;13.342;2023-07-31T00:48:16;8.60;;;2.50;;
29330;SDS011;16331;52.528;13.342;2023-07-31T00:50:45;4.30;;;2.28;;
29330;SDS011;16331;52.528;13.342;2023-07-31T00:53:15;9.75;;;2.40;;
29330;SDS011;16331;52.528;13.342;2023-07-31T00:55:42;7.10;;;2.28;;
29330;SDS011;16331;52.528;13.342;2023-07-31T00:58:09;7.53;;;2.35;;
29330;SDS011;16331;52.528;13.342;2023-07-31T01:00:35;4.88;;;2.25;;
29330;SDS011;16331;52.528;13.342;2023-07-31T01:03:04;6.82;;;2.35;;
29330;SDS011;16331;52.528;13.342;2023-07-31T01:05:36;6.65;;;2.35;;
29330;SDS011;16331;52.528;13.342;2023-07-31T01:08:33;6.00;;;2.28;;
29330;SDS011;16331;52.528;13.342;2023-07-31T01:11:10;6.88;;;3.03;;
29330;SDS011;16331;52.528;13.342;2023-07-31T01:13:56;6.82;;;2.00;;
29330;SDS011;16331;52.528;13.342;2023-07-31T01:16:25;10.25;;;2.72;;
29330;SDS011;16331;52.528;13.342;2023-07-31T01:18:51;4.10;;;2.20;;
29330;SDS011;16331;52.528;13.342;2023-07-31T01:21:21;7.22;;;2.40;;
29330;SDS011;16331;52.528;13.342;2023-07-31T01:24:23;6.05;;;2.40;;
29330;SDS011;16331;52.528;13.342;2023-07-31T01:27:09;8.40;;;3.30;;
29330;SDS011;16331;52.528;13.342;2023-07-31T01:29:43;4.30;;;2.50;;
29330;SDS011;16331;52.528;13.342;2023-07-31T01:32:14;8.70;;;2.60;;
29330;SDS011;16331;52.528;13.342;2023-07-31T01:34:44;5.90;;;2.72;;
29330;SDS011;16331;52.528;13.342;2023-07-31T01:37:11;10.77;;;2.28;;
29330;SDS011;16331;52.528;13.342;2023-07-31T01:39:37;6.50;;;2.83;;
29330;SDS011;16331;52.528;13.342;2023-07-31T01:42:04;8.10;;;2.42;;
29330;SDS011;16331;52.528;13.342;2023-07-31T01:44:30;5.45;;;2.60;;
29330;SDS011;16331;52.528;13.342;2023-07-31T01:46:57;6.80;;;2.85;;
29330;SDS011;16331;52.528;13.342;2023-07-31T01:49:25;7.43;;;2.88;;
29330;SDS011;16331;52.528;13.342;2023-07-31T01:51:51;8.00;;;3.63;;
29330;SDS011;16331;52.528;13.342;2023-07-31T01:54:17;3.80;;;2.13;;
29330;SDS011;16331;52.528;13.342;2023-07-31T01:56:43;8.55;;;3.00;;
29330;SDS011;16331;52.528;13.342;2023-07-31T01:59:10;4.35;;;2.30;;
29330;SDS011;16331;52.528;13.342;2023-07-31T02:01:37;5.63;;;2.30;;
29330;SDS011;16331;52.528;13.342;2023-07-31T02:04:03;6.15;;;2.55;;
29330;SDS011;16331;52.528;13.342;2023-07-31T02:06:30;4.60;;;2.00;;
29330;SDS011;16331;52.528;13.342;2023-07-31T02:08:56;5.70;;;1.85;;
29330;SDS011;16331;52.528;13.342;2023-07-31T02:11:22;4.93;;;2.60;;
29330;SDS011;16331;52.528;13.342;2023-07-31T02:13:50;10.25;;;4.20;;
29330;SDS011;16331;52.528;13.342;2023-07-31T02:16:16;7.40;;;3.05;;
29330;SDS011;16331;52.528;13.342;2023-07-31T02:18:42;3.55;;;1.67;;
29330;SDS011;16331;52.528;13.342;2023-07-31T02:21:08;6.70;;;2.20;;
29330;SDS011;16331;52.528;13.342;2023-07-31T02:23:34;4.38;;;2.10;;
29330;SDS011;16331;52.528;13.342;2023-07-31T02:26:00;4.70;;;2.83;;
29330;SDS011;16331;52.528;13.342;2023-07-31T02:28:26;3.22;;;2.60;;
29330;SDS011;16331;52.528;13.342;2023-07-31T02:30:53;6.85;;;2.75;;
29330;SDS011;16331;52.528;13.342;2023-07-31T02:33:19;12.80;;;4.82;;
29330;SDS011;16331;52.528;13.342;2023-07-31T02:35:46;5.40;;;2.53;;
29330;SDS011;16331;52.528;13.342;2023-07-31T02:38:13;5.82;;;3.08;;
29330;SDS011;16331;52.528;13.342;2023-07-31T02:40:39;7.85;;;2.75;;
29330;SDS011;16331;52.528;13.342;2023-07-31T02:43:08;7.43;;;2.70;;
29330;SDS011;16331;52.528;13.342;2023-07-31T02:45:35;9.95;;;2.75;;
29330;SDS011;16331;52.528;13.342;2023-07-31T02:48:01;6.40;;;2.83;;
29330;SDS011;16331;52.528;13.342;2023-07-31T02:50:28;10.40;;;4.88;;
29330;SDS011;16331;52.528;13.342;2023-07-31T02:52:57;8.18;;;3.70;;
29330;SDS011;16331;52.528;13.342;2023-07-31T02:55:25;6.50;;;2.20;;
29330;SDS011;16331;52.528;13.342;2023-07-31T02:57:51;6.72;;;3.15;;
29330;SDS011;16331;52.528;13.342;2023-07-31T03:00:19;4.75;;;2.80;;
29330;SDS011;16331;52.528;13.342;2023-07-31T03:02:45;6.80;;;2.47;;
29330;SDS011;16331;52.528;13.342;2023-07-31T03:05:13;6.55;;;2.78;;
29330;SDS011;16331;52.528;13.342;2023-07-31T03:07:39;4.97;;;2.65;;
29330;SDS011;16331;52.528;13.342;2023-07-31T03:10:10;7.07;;;3.03;;
29330;SDS011;16331;52.528;13.342;2023-07-31T03:12:37;8.63;;;3.80;;
29330;SDS011;16331;52.528;13.342;2023-07-31T03:15:05;6.45;;;3.38;;
29330;SDS011;16331;52.528;13.342;2023-07-31T03:17:32;7.47;;;3.40;;
29330;SDS011;16331;52.528;13.342;2023-07-31T03:20:02;12.63;;;3.50;;
29330;SDS011;16331;52.528;13.342;2023-07-31T03:22:31;6.90;;;3.63;;
29330;SDS011;16331;52.528;13.342;2023-07-31T03:24:57;7.95;;;3.88;;
29330;SDS011;16331;52.528;13.342;2023-07-31T03:27:27;6.38;;;3.53;;
29330;SDS011;16331;52.528;13.342;2023-07-31T03:29:53;8.82;;;3.83;;
29330;SDS011;16331;52.528;13.342;2023-07-31T03:32:21;12.13;;;3.42;;
29330;SDS011;16331;52.528;13.342;2023-07-31T03:34:49;9.05;;;4.40;;
29330;SDS011;16331;52.528;13.342;2023-07-31T03:37:17;8.18;;;3.35;;
29330;SDS011;16331;52.528;13.342;2023-07-31T03:39:43;9.70;;;3.95;;
29330;SDS011;16331;52.528;13.342;2023-07-31T03:42:10;9.07;;;3.83;;
29330;SDS011;16331;52.528;13.342;2023-07-31T03:44:37;6.72;;;3.90;;
29330;SDS011;16331;52.528;13.342;2023-07-31T03:47:03;7.38;;;3.40;;
29330;SDS011;16331;52.528;13.342;2023-07-31T03:49:32;8.38;;;3.40;;
29330;SDS011;16331;52.528;13.342;2023-07-31T03:51:59;5.85;;;3.47;;
29330;SDS011;16331;52.528;13.342;2023-07-31T03:54:25;7.45;;;4.35;;
29330;SDS011;16331;52.528;13.342;2023-07-31T03:56:52;6.90;;;3.40;;
29330;SDS011;16331;52.528;13.342;2023-07-31T03:59:19;11.05;;;4.28;;
29330;SDS011;16331;52.528;13.342;2023-07-31T04:01:45;12.18;;;4.15;;
29330;SDS011;16331;52.528;13.342;2023-07-31T04:04:11;8.38;;;3.83;;
29330;SDS011;16331;52.528;13.342;2023-07-31T04:06:37;10.80;;;3.83;;
29330;SDS011;16331;52.528;13.342;2023-07-31T04:09:03;7.45;;;3.67;;
29330;SDS011;16331;52.528;13.342;2023-07-31T04:11:29;5.40;;;3.83;;
29330;SDS011;16331;52.528;13.342;2023-07-31T04:13:56;8.82;;;3.38;;
29330;SDS011;16331;52.528;13.342;2023-07-31T04:16:22;12.98;;;4.05;;
29330;SDS011;16331;52.528;13.342;2023-07-31T04:18:48;7.85;;;4.03;;
29330;SDS011;16331;52.528;13.342;2023-07-31T04:21:14;8.95;;;3.33;;
29330;SDS011;16331;52.528;13.342;2023-07-31T04:23:40;7.15;;;3.75;;
29330;SDS011;16331;52.528;13.342;2023-07-31T04:26:06;8.60;;;3.22;;
29330;SDS011;16331;52.528;13.342;2023-07-31T04:28:32;8.75;;;3.35;;
29330;SDS011;16331;52.528;13.342;2023-07-31T04:30:59;14.40;;;3.35;;
29330;SDS011;16331;52.528;13.342;2023-07-31T04:33:25;6.40;;;3.50;;
29330;SDS011;16331;52.528;13.342;2023-07-31T04:35:51;9.15;;;3.40;;
29330;SDS011;16331;52.528;13.342;2023-07-31T04:38:18;11.32;;;3.42;;
29330;SDS011;16331;52.528;13.342;2023-07-31T04:40:46;6.82;;;3.60;;
29330;SDS011;16331;52.528;13.342;2023-07-31T04:43:14;13.20;;;3.63;;
29330;SDS011;16331;52.528;13.342;2023-07-31T04:45:50;12.23;;;3.30;;
29330;SDS011;16331;52.528;13.342;2023-07-31T04:48:16;6.75;;;3.10;;
29330;SDS011;16331;52.528;13.342;2023-07-31T04:50:42;12.80;;;3.97;;
29330;SDS011;16331;52.528;13.342;2023-07-31T04:53:09;9.65;;;2.92;;
29330;SDS011;16331;52.528;13.342;2023-07-31T04:55:35;11.73;;;4.07;;
29330;SDS011;16331;52.528;13.342;2023-07-31T04:58:01;11.10;;;3.58;;
29330;SDS011;16331;52.528;13.342;2023-07-31T05:00:27;5.63;;;3.25;;
29330;SDS011;16331;52.528;13.342;2023-07-31T05:02:53;10.15;;;5.07;;
29330;SDS011;16331;52.528;13.342;2023-07-31T05:05:19;9.82;;;3.42;;
29330;SDS011;16331;52.528;13.342;2023-07-31T05:07:45;5.75;;;3.03;;
29330;SDS011;16331;52.528;13.342;2023-07-31T05:10:11;12.60;;;3.38;;
29330;SDS011;16331;52.528;13.342;2023-07-31T05:12:38;6.53;;;3.60;;
29330;SDS011;16331;52.528;13.342;2023-07-31T05:15:04;7.90;;;3.22;;
29330;SDS011;16331;52.528;13.342;2023-07-31T05:17:32;8.10;;;3.50;;
29330;SDS011;16331;52.528;13.342;2023-07-31T05:19:58;6.07;;;3.38;;
29330;SDS011;16331;52.528;13.342;2023-07-31T05:22:24;4.53;;;2.92;;
29330;SDS011;16331;52.528;13.342;2023-07-31T05:24:51;18.23;;;5.68;;
29330;SDS011;16331;52.528;13.342;2023-07-31T05:27:19;12.48;;;3.67;;
29330;SDS011;16331;52.528;13.342;2023-07-31T05:29:45;7.53;;;3.65;;
29330;SDS011;16331;52.528;13.342;2023-07-31T05:32:12;6.55;;;3.72;;
29330;SDS011;16331;52.528;13.342;2023-07-31T05:34:39;7.95;;;3.38;;
29330;SDS011;16331;52.528;13.342;2023-07-31T05:37:05;8.20;;;3.35;;
29330;SDS011;16331;52.528;13.342;2023-07-31T05:39:31;7.88;;;3.60;;
29330;SDS011;16331;52.528;13.342;2023-07-31T05:41:58;7.10;;;3.22;;
29330;SDS011;16331;52.528;13.342;2023-07-31T05:44:24;3.70;;;2.65;;
29330;SDS011;16331;52.528;13.342;2023-07-31T05:46:50;9.63;;;3.15;;
29330;SDS011;16331;52.528;13.342;2023-07-31T05:49:16;5.38;;;2.75;;
29330;SDS011;16331;52.528;13.342;2023-07-31T05:51:43;10.40;;;3.00;;
29330;SDS011;16331;52.528;13.342;2023-07-31T05:54:09;6.10;;;2.58;;
29330;SDS011;16331;52.528;13.342;2023-07-31T05:56:38;7.72;;;2.80;;
29330;SDS011;16331;52.528;13.342;2023-07-31T05:59:05;6.93;;;3.10;;
29330;SDS011;16331;52.528;13.342;2023-07-31T06:01:31;9.20;;;2.97;;
29330;SDS011;16331;52.528;13.342;2023-07-31T06:03:57;10.38;;;2.65;;
29330;SDS011;16331;52.528;13.342;2023-07-31T06:06:24;5.78;;;2.70;;
29330;SDS011;16331;52.528;13.342;2023-07-31T06:08:50;7.28;;;2.70;;
29330;SDS011;16331;52.528;13.342;2023-07-31T06:11:19;5.90;;;2.40;;
29330;SDS011;16331;52.528;13.342;2023-07-31T06:13:56;7.35;;;3.15;;
29330;SDS011;16331;52.528;13.342;2023-07-31T06:16:23;6.20;;;3.25;;
29330;SDS011;16331;52.528;13.342;2023-07-31T06:18:51;8.55;;;2.63;;
29330;SDS011;16331;52.528;13.342;2023-07-31T06:21:17;6.72;;;3.13;;
29330;SDS011;16331;52.528;13.342;2023-07-31T06:23:47;6.40;;;2.85;;
29330;SDS011;16331;52.528;13.342;2023-07-31T06:26:20;6.82;;;2.72;;
29330;SDS011;16331;52.528;13.342;2023-07-31T06:28:47;8.20;;;2.55;;
29330;SDS011;16331;52.528;13.342;2023-07-31T06:31:13;4.07;;;2.38;;
29330;SDS011;16331;52.528;13.342;2023-07-31T06:33:39;5.97;;;2.65;;
29330;SDS011;16331;52.528;13.342;2023-07-31T06:36:08;7.45;;;2.65;;
29330;SDS011;16331;52.528;13.342;2023-07-31T06:38:37;8.75;;;2.60;;
29330;SDS011;16331;52.528;13.342;2023-07-31T06:41:15;5.45;;;2.60;;
29330;SDS011;16331;52.528;13.342;2023-07-31T06:43:42;4.90;;;2.65;;
29330;SDS011;16331;52.528;13.342;2023-07-31T06:46:08;7.97;;;2.63;;
29330;SDS011;16331;52.528;13.342;2023-07-31T06:48:35;11.13;;;2.70;;
29330;SDS011;16331;52.528;13.342;2023-07-31T06:51:03;14.93;;;3.22;;
29330;SDS011;16331;52.528;13.342;2023-07-31T06:53:29;5.13;;;2.25;;
29330;SDS011;16331;52.528;13.342;2023-07-31T06:55:55;8.80;;;2.35;;
29330;SDS011;16331;52.528;13.342;2023-07-31T06:58:21;7.72;;;2.90;;
29330;SDS011;16331;52.528;13.342;2023-07-31T07:00:47;3.10;;;2.10;;
29330;SDS011;16331;52.528;13.342;2023-07-31T07:03:19;9.25;;;2.38;;
29330;SDS011;16331;52.528;13.342;2023-07-31T07:05:46;5.20;;;1.95;;
29330;SDS011;16331;52.528;13.342;2023-07-31T07:08:12;4.35;;;2.42;;
29330;SDS011;16331;52.528;13.342;2023-07-31T07:10:39;7.50;;;2.20;;
29330;SDS011;16331;52.528;13.342;2023-07-31T07:13:05;4.72;;;2.17;;
29330;SDS011;16331;52.528;13.342;2023-07-31T07:15:31;5.50;;;2.10;;
29330;SDS011;16331;52.528;13.342;2023-07-31T07:17:58;7.80;;;2.17;;
29330;SDS011;16331;52.528;13.342;2023-07-31T07:20:24;7.88;;;2.05;;
29330;SDS011;16331;52.528;13.342;2023-07-31T07:22:50;8.65;;;2.50;;
29330;SDS011;16331;52.528;13.342;2023-07-31T07:25:16;4.75;;;2.22;;
29330;SDS011;16331;52.528;13.342;2023-07-31T07:27:42;5.25;;;2.53;;
29330;SDS011;16331;52.528;13.342;2023-07-31T07:30:09;6.13;;;2.42;;
29330;SDS011;16331;52.528;13.342;2023-07-31T07:32:35;2.92;;;1.75;;
29330;SDS011;16331;52.528;13.342;2023-07-31T07:35:01;6.13;;;2.03;;
29330;SDS011;16331;52.528;13.342;2023-07-31T07:37:27;3.35;;;2.13;;
29330;SDS011;16331;52.528;13.342;2023-07-31T07:39:53;7.07;;;2.35;;
29330;SDS011;16331;52.528;13.342;2023-07-31T07:42:19;6.35;;;2.55;;
29330;SDS011;16331;52.528;13.342;2023-07-31T07:44:45;4.50;;;2.10;;
29330;SDS011;16331;52.528;13.342;2023-07-31T07:47:12;5.40;;;2.42;;
29330;SDS011;16331;52.528;13.342;2023-07-31T07:49:39;7.63;;;2.60;;
29330;SDS011;16331;52.528;13.342;2023-07-31T07:52:09;4.18;;;2.10;;
29330;SDS011;16331;52.528;13.342;2023-07-31T07:54:35;4.72;;;2.65;;
29330;SDS011;16331;52.528;13.342;2023-07-31T07:57:03;6.80;;;2.30;;
29330;SDS011;16331;52.528;13.342;2023-07-31T07:59:29;20.88;;;4.05;;
29330;SDS011;16331;52.528;13.342;2023-07-31T08:01:56;5.15;;;2.03;;
29330;SDS011;16331;52.528;13.342;2023-07-31T08:04:22;3.22;;;1.75;;
29330;SDS011;16331;52.528;13.342;2023-07-31T08:06:51;5.22;;;2.05;;
29330;SDS011;16331;52.528;13.342;2023-07-31T08:09:17;5.75;;;2.38;;
29330;SDS011;16331;52.528;13.342;2023-07-31T08:11:48;3.20;;;2.10;;
29330;SDS011;16331;52.528;13.342;2023-07-31T08:14:20;6.65;;;2.47;;
29330;SDS011;16331;52.528;13.342;2023-07-31T08:16:49;4.10;;;2.50;;
29330;SDS011;16331;52.528;13.342;2023-07-31T08:19:18;5.40;;;2.08;;
29330;SDS011;16331;52.528;13.342;2023-07-31T08:21:45;6.68;;;2.22;;
29330;SDS011;16331;52.528;13.342;2023-07-31T08:24:13;7.07;;;2.17;;
29330;SDS011;16331;52.528;13.342;2023-07-31T08:26:40;4.85;;;2.33;;
29330;SDS011;16331;52.528;13.342;2023-07-31T08:29:06;8.40;;;2.92;;
29330;SDS011;16331;52.528;13.342;2023-07-31T08:31:34;3.53;;;2.35;;
29330;SDS011;16331;52.528;13.342;2023-07-31T08:34:00;3.42;;;1.92;;
29330;SDS011;16331;52.528;13.342;2023-07-31T08:36:27;4.38;;;2.47;;
29330;SDS011;16331;52.528;13.342;2023-07-31T08:38:53;4.45;;;2.47;;
29330;SDS011;16331;52.528;13.342;2023-07-31T08:41:19;3.05;;;2.33;;
29330;SDS011;16331;52.528;13.342;2023-07-31T08:43:45;1.98;;;1.80;;
29330;SDS011;16331;52.528;13.342;2023-07-31T08:46:12;2.60;;;1.80;;
29330;SDS011;16331;52.528;13.342;2023-07-31T08:48:40;3.95;;;2.00;;
29330;SDS011;16331;52.528;13.342;2023-07-31T08:51:09;2.95;;;2.05;;
29330;SDS011;16331;52.528;13.342;2023-07-31T08:53:35;5.40;;;2.70;;
29330;SDS011;16331;52.528;13.342;2023-07-31T08:56:07;7.07;;;2.30;;
29330;SDS011;16331;52.528;13.342;2023-07-31T08:58:34;2.88;;;1.90;;
29330;SDS011;16331;52.528;13.342;2023-07-31T09:01:03;5.57;;;2.17;;
29330;SDS011;16331;52.528;13.342;2023-07-31T09:03:32;3.58;;;1.90;;
29330;SDS011;16331;52.528;13.342;2023-07-31T09:06:02;4.88;;;2.63;;
29330;SDS011;16331;52.528;13.342;2023-07-31T09:08:31;4.03;;;2.35;;
29330;SDS011;16331;52.528;13.342;2023-07-31T09:11:01;3.97;;;2.03;;
29330;SDS011;16331;52.528;13.342;2023-07-31T09:13:30;4.05;;;1.95;;
29330;SDS011;16331;52.528;13.342;2023-07-31T09:15:57;2.95;;;1.85;;
29330;SDS011;16331;52.528;13.342;2023-07-31T09:18:26;6.65;;;1.83;;
29330;SDS011;16331;52.528;13.342;2023-07-31T09:21:02;2.72;;;1.33;;
29330;SDS011;16331;52.528;13.342;2023-07-31T09:23:43;6.07;;;1.58;;
29330;SDS011;16331;52.528;13.342;2023-07-31T09:26:10;5.57;;;1.98;;
29330;SDS011;16331;52.528;13.342;2023-07-31T09:28:56;3.00;;;1.60;;
29330;SDS011;16331;52.528;13.342;2023-07-31T09:31:39;4.93;;;1.50;;
29330;SDS011;16331;52.528;13.342;2023-07-31T09:34:06;6.10;;;1.35;;
29330;SDS011;16331;52.528;13.342;2023-07-31T09:36:39;2.03;;;1.20;;
29330;SDS011;16331;52.528;13.342;2023-07-31T09:39:12;4.97;;;2.20;;
29330;SDS011;16331;52.528;13.342;2023-07-31T09:41:44;1.85;;;1.40;;
29330;SDS011;16331;52.528;13.342;2023-07-31T09:44:12;2.77;;;1.50;;
29330;SDS011;16331;52.528;13.342;2023-07-31T09:46:40;2.63;;;1.35;;
29330;SDS011;16331;52.528;13.342;2023-07-31T09:49:10;6.82;;;1.77;;
29330;SDS011;16331;52.528;13.342;2023-07-31T09:51:41;2.47;;;1.30;;
29330;SDS011;16331;52.528;13.342;2023-07-31T09:54:11;2.20;;;1.40;;
29330;SDS011;16331;52.528;13.342;2023-07-31T09:56:48;2.33;;;1.10;;
29330;SDS011;16331;52.528;13.342;2023-07-31T09:59:15;4.88;;;1.70;;
29330;SDS011;16331;52.528;13.342;2023-07-31T10:01:43;1.60;;;1.02;;
29330;SDS011;16331;52.528;13.342;2023-07-31T10:04:11;3.40;;;1.40;;
29330;SDS011;16331;52.528;13.342;2023-07-31T10:06:38;5.88;;;1.60;;
29330;SDS011;16331;52.528;13.342;2023-07-31T10:09:08;4.95;;;1.90;;
29330;SDS011;16331;52.528;13.342;2023-07-31T10:11:38;4.35;;;1.83;;
29330;SDS011;16331;52.528;13.342;2023-07-31T10:14:10;4.28;;;1.80;;
29330;SDS011;16331;52.528;13.342;2023-07-31T10:16:38;3.38;;;1.92;;
29330;SDS011;16331;52.528;13.342;2023-07-31T10:19:05;3.10;;;1.60;;
29330;SDS011;16331;52.528;13.342;2023-07-31T10:21:33;4.90;;;2.35;;
29330;SDS011;16331;52.528;13.342;2023-07-31T10:24:02;6.75;;;2.20;;
29330;SDS011;16331;52.528;13.342;2023-07-31T10:26:31;5.63;;;2.13;;
29330;SDS011;16331;52.528;13.342;2023-07-31T10:29:02;7.95;;;2.65;;
29330;SDS011;16331;52.528;13.342;2023-07-31T10:31:30;4.20;;;2.55;;
29330;SDS011;16331;52.528;13.342;2023-07-31T10:33:57;17.17;;;5.13;;
29330;SDS011;16331;52.528;13.342;2023-07-31T10:36:25;4.85;;;2.63;;
29330;SDS011;16331;52.528;13.342;2023-07-31T10:38:52;10.80;;;4.80;;
29330;SDS011;16331;52.528;13.342;2023-07-31T10:41:27;8.50;;;2.50;;
29330;SDS011;16331;52.528;13.342;2023-07-31T10:43:59;8.10;;;2.92;;
29330;SDS011;16331;52.528;13.342;2023-07-31T10:46:29;8.98;;;3.25;;
29330;SDS011;16331;52.528;13.342;2023-07-31T10:48:58;6.82;;;2.47;;
29330;SDS011;16331;52.528;13.342;2023-07-31T10:51:34;5.90;;;2.58;;
29330;SDS011;16331;52.528;13.342;2023-07-31T10:54:13;7.60;;;2.53;;
29330;SDS011;16331;52.528;13.342;2023-07-31T10:56:44;5.43;;;2.00;;
29330;SDS011;16331;52.528;13.342;2023-07-31T10:59:14;11.95;;;2.63;;
29330;SDS011;16331;52.528;13.342;2023-07-31T11:01:52;3.92;;;2.28;;
29330;SDS011;16331;52.528;13.342;2023-07-31T11:04:25;7.00;;;2.90;;
29330;SDS011;16331;52.528;13.342;2023-07-31T11:07:01;4.30;;;2.33;;
29330;SDS011;16331;52.528;13.342;2023-07-31T11:09:32;9.23;;;2.50;;
29330;SDS011;16331;52.528;13.342;2023-07-31T11:11:59;5.32;;;2.40;;
29330;SDS011;16331;52.528;13.342;2023-07-31T11:14:25;6.88;;;2.38;;
29330;SDS011;16331;52.528;13.342;2023-07-31T11:16:52;5.55;;;1.98;;
29330;SDS011;16331;52.528;13.342;2023-07-31T11:19:22;7.25;;;2.75;;
29330;SDS011;16331;52.528;13.342;2023-07-31T11:21:51;5.70;;;2.38;;
29330;SDS011;16331;52.528;13.342;2023-07-31T11:24:25;5.05;;;2.47;;
29330;SDS011;16331;52.528;13.342;2023-07-31T11:26:52;6.78;;;2.70;;
29330;SDS011;16331;52.528;13.342;2023-07-31T11:29:18;5.05;;;2.40;;
29330;SDS011;16331;52.528;13.342;2023-07-31T11:31:46;3.05;;;2.30;;
29330;SDS011;16331;52.528;13.342;2023-07-31T11:34:14;7.35;;;2.45;;
29330;SDS011;16331;52.528;13.342;2023-07-31T11:36:42;4.47;;;2.25;;
29330;SDS011;16331;52.528;13.342;2023-07-31T11:39:21;4.68;;;2.10;;
29330;SDS011;16331;52.528;13.342;2023-07-31T11:41:47;4.78;;;2.35;;
29330;SDS011;16331;52.528;13.342;2023-07-31T11:44:13;5.60;;;2.90;;
29330;SDS011;16331;52.528;13.342;2023-07-31T11:46:39;4.85;;;2.40;;
29330;SDS011;16331;52.528;13.342;2023-07-31T11:49:06;3.75;;;2.20;;
29330;SDS011;16331;52.528;13.342;2023-07-31T11:51:32;5.13;;;2.83;;
29330;SDS011;16331;52.528;13.342;2023-07-31T11:54:02;5.10;;;3.08;;
29330;SDS011;16331;52.528;13.342;2023-07-31T11:56:28;6.88;;;3.30;;
29330;SDS011;16331;52.528;13.342;2023-07-31T11:58:57;7.15;;;2.33;;
29330;SDS011;16331;52.528;13.342;2023-07-31T12:01:25;5.13;;;2.28;;
29330;SDS011;16331;52.528;13.342;2023-07-31T12:03:54;4.18;;;2.10;;
29330;SDS011;16331;52.528;13.342;2023-07-31T12:06:32;5.30;;;2.75;;
29330;SDS011;16331;52.528;13.342;2023-07-31T12:09:05;6.97;;;2.90;;
29330;SDS011;16331;52.528;13.342;2023-07-31T12:14:19;8.77;;;2.72;;
29330;SDS011;16331;52.528;13.342;2023-07-31T12:16:56;4.20;;;2.08;;
29330;SDS011;16331;52.528;13.342;2023-07-31T12:19:27;10.23;;;2.38;;
29330;SDS011;16331;52.528;13.342;2023-07-31T12:21:54;6.68;;;2.13;;
29330;SDS011;16331;52.528;13.342;2023-07-31T12:24:21;4.85;;;1.88;;
29330;SDS011;16331;52.528;13.342;2023-07-31T12:26:48;5.57;;;2.25;;
29330;SDS011;16331;52.528;13.342;2023-07-31T12:29:15;4.35;;;1.98;;
29330;SDS011;16331;52.528;13.342;2023-07-31T12:31:41;5.53;;;1.85;;
29330;SDS011;16331;52.528;13.342;2023-07-31T12:34:16;11.15;;;2.50;;
29330;SDS011;16331;52.528;13.342;2023-07-31T12:36:43;6.18;;;2.35;;
29330;SDS011;16331;52.528;13.342;2023-07-31T12:39:10;4.32;;;2.10;;
29330;SDS011;16331;52.528;13.342;2023-07-31T12:41:36;5.32;;;2.00;;
29330;SDS011;16331;52.528;13.342;2023-07-31T12:44:02;5.25;;;1.92;;
29330;SDS011;16331;52.528;13.342;2023-07-31T12:46:29;4.65;;;2.13;;
29330;SDS011;16331;52.528;13.342;2023-07-31T12:48:55;6.95;;;1.95;;
29330;SDS011;16331;52.528;13.342;2023-07-31T12:51:21;4.40;;;2.90;;
29330;SDS011;16331;52.528;13.342;2023-07-31T12:53:47;2.63;;;1.60;;
29330;SDS011;16331;52.528;13.342;2023-07-31T12:56:13;5.10;;;1.92;;
29330;SDS011;16331;52.528;13.342;2023-07-31T12:58:40;5.75;;;1.73;;
29330;SDS011;16331;52.528;13.342;2023-07-31T13:01:07;3.75;;;1.67;;
29330;SDS011;16331;52.528;13.342;2023-07-31T13:03:33;4.88;;;1.65;;
29330;SDS011;16331;52.528;13.342;2023-07-31T13:05:59;3.22;;;1.50;;
29330;SDS011;16331;52.528;13.342;2023-07-31T13:08:26;2.70;;;1.50;;
29330;SDS011;16331;52.528;13.342;2023-07-31T13:10:52;4.07;;;1.58;;
29330;SDS011;16331;52.528;13.342;2023-07-31T13:13:18;3.92;;;2.10;;
29330;SDS011;16331;52.528;13.342;2023-07-31T13:15:44;4.10;;;2.38;;
29330;SDS011;16331;52.528;13.342;2023-07-31T13:18:12;3.35;;;1.90;;
29330;SDS011;16331;52.528;13.342;2023-07-31T13:20:38;2.85;;;1.73;;
29330;SDS011;16331;52.528;13.342;2023-07-31T13:23:05;2.83;;;1.83;;
29330;SDS011;16331;52.528;13.342;2023-07-31T13:25:33;2.63;;;1.48;;
29330;SDS011;16331;52.528;13.342;2023-07-31T13:28:00;2.88;;;1.50;;
29330;SDS011;16331;52.528;13.342;2023-07-31T13:30:26;2.90;;;1.60;;
29330;SDS011;16331;52.528;13.342;2023-07-31T13:32:55;3.38;;;1.55;;
29330;SDS011;16331;52.528;13.342;2023-07-31T13:35:21;2.47;;;1.30;;
29330;SDS011;16331;52.528;13.342;2023-07-31T13:37:47;6.53;;;1.80;;
29330;SDS011;16331;52.528;13.342;2023-07-31T13:40:15;3.65;;;2.03;;
29330;SDS011;16331;52.528;13.342;2023-07-31T13:42:42;3.38;;;1.80;;
29330;SDS011;16331;52.528;13.342;2023-07-31T13:45:08;3.40;;;1.70;;
29330;SDS011;16331;52.528;13.342;2023-07-31T13:47:34;4.35;;;1.92;;
29330;SDS011;16331;52.528;13.342;2023-07-31T13:50:02;5.75;;;2.13;;
29330;SDS011;16331;52.528;13.342;2023-07-31T13:52:28;4.20;;;1.88;;
29330;SDS011;16331;52.528;13.342;2023-07-31T13:54:54;3.72;;;1.92;;
29330;SDS011;16331;52.528;13.342;2023-07-31T13:57:20;5.72;;;1.80;;
29330;SDS011;16331;52.528;13.342;2023-07-31T13:59:48;6.22;;;2.45;;
29330;SDS011;16331;52.528;13.342;2023-07-31T14:02:15;5.03;;;2.05;;
29330;SDS011;16331;52.528;13.342;2023-07-31T14:04:41;7.10;;;1.90;;
29330;SDS011;16331;52.528;13.342;2023-07-31T14:07:07;5.50;;;2.35;;
29330;SDS011;16331;52.528;13.342;2023-07-31T14:09:33;6.70;;;2.53;;
29330;SDS011;16331;52.528;13.342;2023-07-31T14:11:59;4.15;;;2.00;;
29330;SDS011;16331;52.528;13.342;2023-07-31T14:14:26;2.78;;;1.85;;
29330;SDS011;16331;52.528;13.342;2023-07-31T14:17:11;4.82;;;2.20;;
29330;SDS011;16331;52.528;13.342;2023-07-31T14:19:39;6.15;;;1.80;;
29330;SDS011;16331;52.528;13.342;2023-07-31T14:22:10;3.97;;;2.40;;
29330;SDS011;16331;52.528;13.342;2023-07-31T14:24:37;8.80;;;2.17;;
29330;SDS011;16331;52.528;13.342;2023-07-31T14:27:03;5.93;;;2.35;;
29330;SDS011;16331;52.528;13.342;2023-07-31T14:29:30;3.75;;;2.03;;
29330;SDS011;16331;52.528;13.342;2023-07-31T14:31:58;5.40;;;3.15;;
29330;SDS011;16331;52.528;13.342;2023-07-31T14:34:27;5.28;;;2.08;;
29330;SDS011;16331;52.528;13.342;2023-07-31T14:36:53;4.57;;;1.77;;
29330;SDS011;16331;52.528;13.342;2023-07-31T14:39:19;5.13;;;2.25;;
29330;SDS011;16331;52.528;13.342;2023-07-31T14:41:46;9.55;;;2.85;;